sensor_id;sensor_type;location;lat;lon;timestamp;temperature;humidity
40123;DHT22;25832;45.490;4.912;2023-02-12T00:01:33;-2.10;99.90
40123;DHT22;25832;45.490;4.912;2023-02-12T00:04:00;-2.10;99.90
40123;DHT22;25832;45.490;4.912;2023-02-12T00:06:26;-2.20;99.90
40123;DHT22;25832;45.490;4.912;2023-02-12T00:08:53;-2.20;99.90
40123;DHT22;25832;45.490;4.912;2023-02-12T00:11:25;-2.20;99.90
40123;DHT22;25832;45.490;4.912;2023-02-12T00:13:51;-2.20;99.90
40123;DHT22;25832;45.490;4.912;2023-02-12T00:16:21;-2.20;99.90
40123;DHT22;25832;45.490;4.912;2023-02-12T00:18:47;-2.20;99.90
40123;DHT22;25832;45.490;4.912;2023-02-12T00:21:15;-2.20;99.90
40123;DHT22;25832;45.490;4.912;2023-02-12T00:23:42;-2.20;99.90
40123;DHT22;25832;45.490;4.912;2023-02-12T00:26:09;-2.30;99.90
40123;DHT22;25832;45.490;4.912;2023-02-12T00:28:36;-2.30;99.90
40123;DHT22;25832;45.490;4.912;2023-02-12T00:31:09;-2.30;99.90
40123;DHT22;25832;45.490;4.912;2023-02-12T00:33:36;-2.30;99.90
40123;DHT22;25832;45.490;4.912;2023-02-12T00:36:02;-2.30;99.90
40123;DHT22;25832;45.490;4.912;2023-02-12T00:38:28;-2.40;99.90
40123;DHT22;25832;45.490;4.912;2023-02-12T00:40:54;-2.40;99.90
40123;DHT22;25832;45.490;4.912;2023-02-12T00:43:20;-2.40;99.90
40123;DHT22;25832;45.490;4.912;2023-02-12T00:45:46;-2.40;99.90
40123;DHT22;25832;45.490;4.912;2023-02-12T00:48:13;-2.40;99.90
40123;DHT22;25832;45.490;4.912;2023-02-12T00:50:39;-2.40;99.90
40123;DHT22;25832;45.490;4.912;2023-02-12T00:53:06;-2.30;99.90
40123;DHT22;25832;45.490;4.912;2023-02-12T00:55:32;-2.30;99.90
40123;DHT22;25832;45.490;4.912;2023-02-12T00:57:58;-2.30;99.90
40123;DHT22;25832;45.490;4.912;2023-02-12T01:00:24;-2.40;99.90
40123;DHT22;25832;45.490;4.912;2023-02-12T01:02:50;-2.50;99.90
40123;DHT22;25832;45.490;4.912;2023-02-12T01:05:16;-2.60;99.90
40123;DHT22;25832;45.490;4.912;2023-02-12T01:07:41;-2.70;99.90
40123;DHT22;25832;45.490;4.912;2023-02-12T01:10:08;-2.70;99.90
40123;DHT22;25832;45.490;4.912;2023-02-12T01:12:34;-2.80;99.90
40123;DHT22;25832;45.490;4.912;2023-02-12T01:15:00;-2.80;99.90
40123;DHT22;25832;45.490;4.912;2023-02-12T01:17:25;-2.80;99.90
40123;DHT22;25832;45.490;4.912;2023-02-12T01:19:56;-2.70;99.90
40123;DHT22;25832;45.490;4.912;2023-02-12T01:22:22;-2.70;99.90
40123;DHT22;25832;45.490;4.912;2023-02-12T01:24:47;-2.70;99.90
40123;DHT22;25832;45.490;4.912;2023-02-12T01:27:14;-2.70;99.90
40123;DHT22;25832;45.490;4.912;2023-02-12T01:29:39;-2.80;99.90
40123;DHT22;25832;45.490;4.912;2023-02-12T01:32:09;-2.80;99.90
40123;DHT22;25832;45.490;4.912;2023-02-12T01:34:35;-2.90;99.90
40123;DHT22;25832;45.490;4.912;2023-02-12T01:37:01;-2.90;99.90
40123;DHT22;25832;45.490;4.912;2023-02-12T01:39:27;-2.90;99.90
40123;DHT22;25832;45.490;4.912;2023-02-12T01:41:53;-2.90;99.90
40123;DHT22;25832;45.490;4.912;2023-02-12T01:44:21;-2.90;99.90
40123;DHT22;25832;45.490;4.912;2023-02-12T01:46:49;-2.80;99.90
40123;DHT22;25832;45.490;4.912;2023-02-12T01:49:40;-2.70;99.90
40123;DHT22;25832;45.490;4.912;2023-02-12T01:52:12;-2.60;99.90
40123;DHT22;25832;45.490;4.912;2023-02-12T01:54:38;-2.60;99.90
40123;DHT22;25832;45.490;4.912;2023-02-12T01:57:05;-2.50;99.90
40123;DHT22;25832;45.490;4.912;2023-02-12T01:59:33;-2.50;99.90
40123;DHT22;25832;45.490;4.912;2023-02-12T02:02:00;-2.50;99.90
40123;DHT22;25832;45.490;4.912;2023-02-12T02:04:28;-2.50;99.90
40123;DHT22;25832;45.490;4.912;2023-02-12T02:06:59;-2.50;99.90
40123;DHT22;25832;45.490;4.912;2023-02-12T02:09:26;-2.60;99.90
40123;DHT22;25832;45.490;4.912;2023-02-12T02:11:52;-2.60;99.90
40123;DHT22;25832;45.490;4.912;2023-02-12T02:14:37;-2.60;99.90
40123;DHT22;25832;45.490;4.912;2023-02-12T02:17:40;-2.60;99.90
40123;DHT22;25832;45.490;4.912;2023-02-12T02:32:35;-2.70;99.90
40123;DHT22;25832;45.490;4.912;2023-02-12T02:35:04;-2.80;99.90
40123;DHT22;25832;45.490;4.912;2023-02-12T02:37:39;-2.80;99.90
40123;DHT22;25832;45.490;4.912;2023-02-12T02:40:18;-2.90;99.90
40123;DHT22;25832;45.490;4.912;2023-02-12T02:42:52;-2.90;99.90
40123;DHT22;25832;45.490;4.912;2023-02-12T02:45:40;-2.90;99.90
40123;DHT22;25832;45.490;4.912;2023-02-12T02:50:47;-3.00;99.90
40123;DHT22;25832;45.490;4.912;2023-02-12T02:53:19;-2.90;99.90
40123;DHT22;25832;45.490;4.912;2023-02-12T02:55:49;-2.90;99.90
40123;DHT22;25832;45.490;4.912;2023-02-12T02:58:43;-2.90;99.90
40123;DHT22;25832;45.490;4.912;2023-02-12T03:01:23;-2.80;99.90
40123;DHT22;25832;45.490;4.912;2023-02-12T03:04:07;-2.80;99.90
40123;DHT22;25832;45.490;4.912;2023-02-12T03:06:43;-2.90;99.90
40123;DHT22;25832;45.490;4.912;2023-02-12T03:09:36;-2.90;99.90
40123;DHT22;25832;45.490;4.912;2023-02-12T03:12:07;-3.00;99.90
40123;DHT22;25832;45.490;4.912;2023-02-12T03:14:40;-3.10;99.90
40123;DHT22;25832;45.490;4.912;2023-02-12T03:17:11;-3.10;99.90
40123;DHT22;25832;45.490;4.912;2023-02-12T03:19:45;-3.10;99.90
40123;DHT22;25832;45.490;4.912;2023-02-12T03:22:24;-3.20;99.90
40123;DHT22;25832;45.490;4.912;2023-02-12T03:28:09;-3.10;99.90
40123;DHT22;25832;45.490;4.912;2023-02-12T03:31:39;-3.10;99.90
40123;DHT22;25832;45.490;4.912;2023-02-12T03:42:41;-3.20;99.90
40123;DHT22;25832;45.490;4.912;2023-02-12T03:45:21;-3.10;99.90
40123;DHT22;25832;45.490;4.912;2023-02-12T03:47:58;-3.20;99.90
40123;DHT22;25832;45.490;4.912;2023-02-12T03:50:47;-3.20;99.90
40123;DHT22;25832;45.490;4.912;2023-02-12T03:53:15;-3.20;99.90
40123;DHT22;25832;45.490;4.912;2023-02-12T03:55:44;-3.20;99.90
40123;DHT22;25832;45.490;4.912;2023-02-12T03:58:17;-3.20;99.90
40123;DHT22;25832;45.490;4.912;2023-02-12T04:00:45;-3.20;99.90
40123;DHT22;25832;45.490;4.912;2023-02-12T04:03:11;-3.20;99.90
40123;DHT22;25832;45.490;4.912;2023-02-12T04:05:37;-3.20;99.90
40123;DHT22;25832;45.490;4.912;2023-02-12T04:08:05;-3.20;99.90
40123;DHT22;25832;45.490;4.912;2023-02-12T04:10:52;-3.20;99.90
40123;DHT22;25832;45.490;4.912;2023-02-12T04:13:41;-3.20;99.90
40123;DHT22;25832;45.490;4.912;2023-02-12T04:18:44;-3.30;99.90
40123;DHT22;25832;45.490;4.912;2023-02-12T04:24:58;-3.20;99.90
40123;DHT22;25832;45.490;4.912;2023-02-12T04:27:33;-3.20;99.90
40123;DHT22;25832;45.490;4.912;2023-02-12T04:30:22;-3.20;99.90
40123;DHT22;25832;45.490;4.912;2023-02-12T04:33:03;-3.20;99.90
40123;DHT22;25832;45.490;4.912;2023-02-12T04:35:46;-3.20;99.90
40123;DHT22;25832;45.490;4.912;2023-02-12T04:38:36;-3.10;99.90
40123;DHT22;25832;45.490;4.912;2023-02-12T04:41:06;-3.20;99.90
40123;DHT22;25832;45.490;4.912;2023-02-12T04:43:35;-3.20;99.90
40123;DHT22;25832;45.490;4.912;2023-02-12T04:46:02;-3.30;99.90
40123;DHT22;25832;45.490;4.912;2023-02-12T04:48:28;-3.20;99.90
40123;DHT22;25832;45.490;4.912;2023-02-12T04:50:54;-3.20;99.90
40123;DHT22;25832;45.490;4.912;2023-02-12T04:53:20;-3.10;99.90
40123;DHT22;25832;45.490;4.912;2023-02-12T04:55:45;-3.10;99.90
40123;DHT22;25832;45.490;4.912;2023-02-12T04:58:12;-3.00;99.90
40123;DHT22;25832;45.490;4.912;2023-02-12T05:00:38;-3.00;99.90
40123;DHT22;25832;45.490;4.912;2023-02-12T05:03:04;-3.10;99.90
40123;DHT22;25832;45.490;4.912;2023-02-12T05:05:29;-3.10;99.90
40123;DHT22;25832;45.490;4.912;2023-02-12T05:07:55;-3.20;99.90
40123;DHT22;25832;45.490;4.912;2023-02-12T05:10:21;-3.20;99.90
40123;DHT22;25832;45.490;4.912;2023-02-12T05:12:47;-3.30;99.90
40123;DHT22;25832;45.490;4.912;2023-02-12T05:15:12;-3.20;99.90
40123;DHT22;25832;45.490;4.912;2023-02-12T05:17:38;-3.20;99.90
40123;DHT22;25832;45.490;4.912;2023-02-12T05:20:04;-3.20;99.90
40123;DHT22;25832;45.490;4.912;2023-02-12T05:22:30;-3.20;99.90
40123;DHT22;25832;45.490;4.912;2023-02-12T05:24:56;-3.20;99.90
40123;DHT22;25832;45.490;4.912;2023-02-12T05:27:22;-3.30;99.90
40123;DHT22;25832;45.490;4.912;2023-02-12T05:29:47;-3.30;99.90
40123;DHT22;25832;45.490;4.912;2023-02-12T05:32:13;-3.30;99.90
40123;DHT22;25832;45.490;4.912;2023-02-12T05:34:38;-3.30;99.90
40123;DHT22;25832;45.490;4.912;2023-02-12T05:37:04;-3.40;99.90
40123;DHT22;25832;45.490;4.912;2023-02-12T05:39:30;-3.40;99.90
40123;DHT22;25832;45.490;4.912;2023-02-12T05:41:56;-3.40;99.90
40123;DHT22;25832;45.490;4.912;2023-02-12T05:44:21;-3.30;99.90
40123;DHT22;25832;45.490;4.912;2023-02-12T05:46:47;-3.30;99.90
40123;DHT22;25832;45.490;4.912;2023-02-12T05:49:13;-3.30;99.90
40123;DHT22;25832;45.490;4.912;2023-02-12T05:51:38;-3.30;99.90
40123;DHT22;25832;45.490;4.912;2023-02-12T05:54:05;-3.40;99.90
40123;DHT22;25832;45.490;4.912;2023-02-12T05:56:36;-3.30;99.90
40123;DHT22;25832;45.490;4.912;2023-02-12T05:59:05;-3.40;99.90
40123;DHT22;25832;45.490;4.912;2023-02-12T06:01:34;-3.40;99.90
40123;DHT22;25832;45.490;4.912;2023-02-12T06:04:03;-3.40;99.90
40123;DHT22;25832;45.490;4.912;2023-02-12T06:06:29;-3.40;99.90
40123;DHT22;25832;45.490;4.912;2023-02-12T06:08:56;-3.40;99.90
40123;DHT22;25832;45.490;4.912;2023-02-12T06:11:22;-3.50;99.90
40123;DHT22;25832;45.490;4.912;2023-02-12T06:13:49;-3.50;99.90
40123;DHT22;25832;45.490;4.912;2023-02-12T06:16:25;-3.50;99.90
40123;DHT22;25832;45.490;4.912;2023-02-12T06:18:54;-3.60;99.90
40123;DHT22;25832;45.490;4.912;2023-02-12T06:21:21;-3.60;99.90
40123;DHT22;25832;45.490;4.912;2023-02-12T06:23:47;-3.60;99.90
40123;DHT22;25832;45.490;4.912;2023-02-12T06:26:14;-3.60;99.90
40123;DHT22;25832;45.490;4.912;2023-02-12T06:28:39;-3.60;99.90
40123;DHT22;25832;45.490;4.912;2023-02-12T06:31:18;-3.60;99.90
40123;DHT22;25832;45.490;4.912;2023-02-12T06:33:44;-3.60;99.90
40123;DHT22;25832;45.490;4.912;2023-02-12T06:36:09;-3.60;99.90
40123;DHT22;25832;45.490;4.912;2023-02-12T06:38:35;-3.60;99.90
40123;DHT22;25832;45.490;4.912;2023-02-12T06:41:01;-3.60;99.90
40123;DHT22;25832;45.490;4.912;2023-02-12T06:43:27;-3.60;99.90
40123;DHT22;25832;45.490;4.912;2023-02-12T06:45:53;-3.50;99.90
40123;DHT22;25832;45.490;4.912;2023-02-12T06:48:19;-3.50;99.90
40123;DHT22;25832;45.490;4.912;2023-02-12T06:50:44;-3.40;99.90
40123;DHT22;25832;45.490;4.912;2023-02-12T06:53:10;-3.30;99.90
40123;DHT22;25832;45.490;4.912;2023-02-12T06:55:35;-3.30;99.90
40123;DHT22;25832;45.490;4.912;2023-02-12T06:58:02;-3.20;99.90
40123;DHT22;25832;45.490;4.912;2023-02-12T07:00:28;-3.20;99.90
40123;DHT22;25832;45.490;4.912;2023-02-12T07:02:54;-3.10;99.90
40123;DHT22;25832;45.490;4.912;2023-02-12T07:05:20;-3.00;99.90
40123;DHT22;25832;45.490;4.912;2023-02-12T07:07:46;-2.90;99.90
40123;DHT22;25832;45.490;4.912;2023-02-12T07:10:12;-2.80;99.90
40123;DHT22;25832;45.490;4.912;2023-02-12T07:12:38;-2.70;99.90
40123;DHT22;25832;45.490;4.912;2023-02-12T07:15:03;-2.60;99.90
40123;DHT22;25832;45.490;4.912;2023-02-12T07:17:29;-2.60;99.90
40123;DHT22;25832;45.490;4.912;2023-02-12T07:19:55;-2.50;99.90
40123;DHT22;25832;45.490;4.912;2023-02-12T07:22:21;-2.60;99.90
40123;DHT22;25832;45.490;4.912;2023-02-12T07:24:47;-2.50;99.90
40123;DHT22;25832;45.490;4.912;2023-02-12T07:27:13;-2.30;99.90
40123;DHT22;25832;45.490;4.912;2023-02-12T07:29:39;-2.20;99.90
40123;DHT22;25832;45.490;4.912;2023-02-12T07:32:05;-2.00;99.90
40123;DHT22;25832;45.490;4.912;2023-02-12T07:34:31;-1.90;99.90
40123;DHT22;25832;45.490;4.912;2023-02-12T07:36:57;-1.70;99.90
40123;DHT22;25832;45.490;4.912;2023-02-12T07:39:23;-1.70;99.90
40123;DHT22;25832;45.490;4.912;2023-02-12T07:41:49;-1.60;99.90
40123;DHT22;25832;45.490;4.912;2023-02-12T07:44:15;-1.40;99.90
40123;DHT22;25832;45.490;4.912;2023-02-12T07:46:48;-1.30;99.90
40123;DHT22;25832;45.490;4.912;2023-02-12T07:49:19;-1.30;99.90
40123;DHT22;25832;45.490;4.912;2023-02-12T07:51:46;-1.20;99.90
40123;DHT22;25832;45.490;4.912;2023-02-12T07:54:12;-1.10;99.90
40123;DHT22;25832;45.490;4.912;2023-02-12T07:56:40;-0.90;99.90
40123;DHT22;25832;45.490;4.912;2023-02-12T07:59:09;-0.80;99.90
40123;DHT22;25832;45.490;4.912;2023-02-12T08:01:37;-0.70;99.90
40123;DHT22;25832;45.490;4.912;2023-02-12T08:04:08;-0.60;99.90
40123;DHT22;25832;45.490;4.912;2023-02-12T08:06:38;-0.60;99.90
40123;DHT22;25832;45.490;4.912;2023-02-12T08:09:07;-0.50;99.90
40123;DHT22;25832;45.490;4.912;2023-02-12T08:11:35;-0.40;99.90
40123;DHT22;25832;45.490;4.912;2023-02-12T08:14:02;-0.40;99.90
40123;DHT22;25832;45.490;4.912;2023-02-12T08:16:29;-0.30;99.90
40123;DHT22;25832;45.490;4.912;2023-02-12T08:18:56;-0.30;99.90
40123;DHT22;25832;45.490;4.912;2023-02-12T08:21:24;-0.20;99.90
40123;DHT22;25832;45.490;4.912;2023-02-12T08:23:52;-0.10;99.90
40123;DHT22;25832;45.490;4.912;2023-02-12T08:26:20;0.00;99.90
40123;DHT22;25832;45.490;4.912;2023-02-12T08:28:53;0.10;99.90
40123;DHT22;25832;45.490;4.912;2023-02-12T08:31:31;0.20;99.90
40123;DHT22;25832;45.490;4.912;2023-02-12T08:33:58;0.30;99.90
40123;DHT22;25832;45.490;4.912;2023-02-12T08:36:26;0.40;99.90
40123;DHT22;25832;45.490;4.912;2023-02-12T08:38:52;0.50;99.90
40123;DHT22;25832;45.490;4.912;2023-02-12T08:41:23;0.60;99.90
40123;DHT22;25832;45.490;4.912;2023-02-12T08:43:52;0.70;99.90
40123;DHT22;25832;45.490;4.912;2023-02-12T08:46:22;0.80;99.90
40123;DHT22;25832;45.490;4.912;2023-02-12T08:48:53;0.90;99.90
40123;DHT22;25832;45.490;4.912;2023-02-12T08:51:21;1.10;99.90
40123;DHT22;25832;45.490;4.912;2023-02-12T08:53:51;1.20;99.90
40123;DHT22;25832;45.490;4.912;2023-02-12T08:56:18;1.30;99.90
40123;DHT22;25832;45.490;4.912;2023-02-12T08:58:44;1.40;99.90
40123;DHT22;25832;45.490;4.912;2023-02-12T09:01:12;1.50;99.90
40123;DHT22;25832;45.490;4.912;2023-02-12T09:03:38;1.60;99.90
40123;DHT22;25832;45.490;4.912;2023-02-12T09:06:05;1.60;99.90
40123;DHT22;25832;45.490;4.912;2023-02-12T09:08:31;1.70;99.90
40123;DHT22;25832;45.490;4.912;2023-02-12T09:10:57;1.80;99.90
40123;DHT22;25832;45.490;4.912;2023-02-12T09:13:23;1.80;99.90
40123;DHT22;25832;45.490;4.912;2023-02-12T09:15:49;1.80;99.90
40123;DHT22;25832;45.490;4.912;2023-02-12T09:18:14;1.80;99.90
40123;DHT22;25832;45.490;4.912;2023-02-12T09:20:42;1.90;99.90
40123;DHT22;25832;45.490;4.912;2023-02-12T09:23:13;2.00;99.90
40123;DHT22;25832;45.490;4.912;2023-02-12T09:25:41;2.00;99.90
40123;DHT22;25832;45.490;4.912;2023-02-12T09:28:06;2.20;99.90
40123;DHT22;25832;45.490;4.912;2023-02-12T09:30:32;2.30;99.90
40123;DHT22;25832;45.490;4.912;2023-02-12T09:32:58;2.40;99.90
40123;DHT22;25832;45.490;4.912;2023-02-12T09:35:23;2.50;99.90
40123;DHT22;25832;45.490;4.912;2023-02-12T09:37:51;2.60;99.90
40123;DHT22;25832;45.490;4.912;2023-02-12T09:45:59;2.90;99.90
40123;DHT22;25832;45.490;4.912;2023-02-12T09:48:38;3.00;99.90
40123;DHT22;25832;45.490;4.912;2023-02-12T09:51:08;3.10;99.90
40123;DHT22;25832;45.490;4.912;2023-02-12T09:53:39;3.20;99.90
40123;DHT22;25832;45.490;4.912;2023-02-12T09:56:12;3.30;99.90
40123;DHT22;25832;45.490;4.912;2023-02-12T09:58:51;3.40;99.90
40123;DHT22;25832;45.490;4.912;2023-02-12T10:01:20;3.50;99.90
40123;DHT22;25832;45.490;4.912;2023-02-12T10:03:48;3.60;99.90
40123;DHT22;25832;45.490;4.912;2023-02-12T10:09:00;3.80;99.90
40123;DHT22;25832;45.490;4.912;2023-02-12T10:17:28;4.00;99.90
40123;DHT22;25832;45.490;4.912;2023-02-12T10:25:27;4.30;99.90
40123;DHT22;25832;45.490;4.912;2023-02-12T10:27:56;4.50;99.90
40123;DHT22;25832;45.490;4.912;2023-02-12T10:30:38;4.60;99.90
40123;DHT22;25832;45.490;4.912;2023-02-12T10:33:10;4.80;99.90
40123;DHT22;25832;45.490;4.912;2023-02-12T10:35:44;4.90;99.90
40123;DHT22;25832;45.490;4.912;2023-02-12T10:38:21;5.10;99.90
40123;DHT22;25832;45.490;4.912;2023-02-12T10:40:49;5.10;99.50
40123;DHT22;25832;45.490;4.912;2023-02-12T10:43:15;5.20;99.60
40123;DHT22;25832;45.490;4.912;2023-02-12T10:45:42;5.30;99.90
40123;DHT22;25832;45.490;4.912;2023-02-12T10:48:41;5.30;99.60
40123;DHT22;25832;45.490;4.912;2023-02-12T10:53:44;5.60;99.00
40123;DHT22;25832;45.490;4.912;2023-02-12T10:56:21;5.70;98.40
40123;DHT22;25832;45.490;4.912;2023-02-12T11:01:19;6.00;98.40
40123;DHT22;25832;45.490;4.912;2023-02-12T11:03:44;6.20;98.20
40123;DHT22;25832;45.490;4.912;2023-02-12T11:06:16;6.30;97.90
40123;DHT22;25832;45.490;4.912;2023-02-12T11:08:43;6.40;97.60
40123;DHT22;25832;45.490;4.912;2023-02-12T11:11:14;6.50;98.30
40123;DHT22;25832;45.490;4.912;2023-02-12T11:13:45;6.50;98.00
40123;DHT22;25832;45.490;4.912;2023-02-12T11:16:13;6.60;98.20
40123;DHT22;25832;45.490;4.912;2023-02-12T11:18:41;6.70;97.30
40123;DHT22;25832;45.490;4.912;2023-02-12T11:21:09;6.80;96.90
40123;DHT22;25832;45.490;4.912;2023-02-12T11:23:40;6.80;97.00
40123;DHT22;25832;45.490;4.912;2023-02-12T11:26:23;6.90;97.40
40123;DHT22;25832;45.490;4.912;2023-02-12T11:28:54;7.00;97.60
40123;DHT22;25832;45.490;4.912;2023-02-12T11:31:32;7.00;96.50
40123;DHT22;25832;45.490;4.912;2023-02-12T11:36:51;7.20;96.80
40123;DHT22;25832;45.490;4.912;2023-02-12T11:39:19;7.20;96.40
40123;DHT22;25832;45.490;4.912;2023-02-12T11:41:49;7.30;96.40
40123;DHT22;25832;45.490;4.912;2023-02-12T11:44:24;7.40;96.70
40123;DHT22;25832;45.490;4.912;2023-02-12T11:49:27;7.60;96.80
40123;DHT22;25832;45.490;4.912;2023-02-12T11:51:55;7.60;96.60
40123;DHT22;25832;45.490;4.912;2023-02-12T11:54:24;7.70;96.40
40123;DHT22;25832;45.490;4.912;2023-02-12T11:56:51;7.90;96.20
40123;DHT22;25832;45.490;4.912;2023-02-12T11:59:30;7.90;95.60
40123;DHT22;25832;45.490;4.912;2023-02-12T12:02:00;8.00;95.70
40123;DHT22;25832;45.490;4.912;2023-02-12T12:04:28;8.00;95.10
40123;DHT22;25832;45.490;4.912;2023-02-12T12:07:04;8.10;95.00
40123;DHT22;25832;45.490;4.912;2023-02-12T12:12:20;8.20;95.30
40123;DHT22;25832;45.490;4.912;2023-02-12T12:14:54;8.20;95.70
40123;DHT22;25832;45.490;4.912;2023-02-12T12:23:48;8.50;94.40
40123;DHT22;25832;45.490;4.912;2023-02-12T12:26:25;8.60;94.80
40123;DHT22;25832;45.490;4.912;2023-02-12T12:29:16;8.70;94.10
40123;DHT22;25832;45.490;4.912;2023-02-12T12:31:46;8.70;94.20
40123;DHT22;25832;45.490;4.912;2023-02-12T12:34:24;8.70;93.50
40123;DHT22;25832;45.490;4.912;2023-02-12T12:36:59;8.70;94.90
40123;DHT22;25832;45.490;4.912;2023-02-12T12:45:27;8.80;92.90
40123;DHT22;25832;45.490;4.912;2023-02-12T12:48:16;8.80;93.30
40123;DHT22;25832;45.490;4.912;2023-02-12T12:58:50;9.20;93.00
40123;DHT22;25832;45.490;4.912;2023-02-12T13:01:45;9.30;92.80
40123;DHT22;25832;45.490;4.912;2023-02-12T13:07:29;9.50;93.20
40123;DHT22;25832;45.490;4.912;2023-02-12T13:10:25;9.60;92.30
40123;DHT22;25832;45.490;4.912;2023-02-12T13:15:40;9.80;91.90
40123;DHT22;25832;45.490;4.912;2023-02-12T13:23:44;9.80;92.70
40123;DHT22;25832;45.490;4.912;2023-02-12T13:29:11;9.90;91.20
40123;DHT22;25832;45.490;4.912;2023-02-12T13:31:45;9.90;92.10
40123;DHT22;25832;45.490;4.912;2023-02-12T13:34:14;9.90;91.90
40123;DHT22;25832;45.490;4.912;2023-02-12T13:36:46;9.90;91.70
40123;DHT22;25832;45.490;4.912;2023-02-12T13:39:35;10.00;93.50
40123;DHT22;25832;45.490;4.912;2023-02-12T13:45:45;10.20;91.40
40123;DHT22;25832;45.490;4.912;2023-02-12T13:50:41;10.10;92.90
40123;DHT22;25832;45.490;4.912;2023-02-12T13:53:19;10.30;92.80
40123;DHT22;25832;45.490;4.912;2023-02-12T14:01:08;10.20;91.60
40123;DHT22;25832;45.490;4.912;2023-02-12T14:03:36;10.20;92.00
40123;DHT22;25832;45.490;4.912;2023-02-12T14:06:14;10.20;91.60
40123;DHT22;25832;45.490;4.912;2023-02-12T14:08:47;10.20;91.70
40123;DHT22;25832;45.490;4.912;2023-02-12T14:11:17;10.20;91.50
40123;DHT22;25832;45.490;4.912;2023-02-12T14:14:02;10.20;91.80
40123;DHT22;25832;45.490;4.912;2023-02-12T14:21:59;10.20;91.70
40123;DHT22;25832;45.490;4.912;2023-02-12T14:24:47;10.30;91.90
40123;DHT22;25832;45.490;4.912;2023-02-12T14:35:41;10.50;91.40
40123;DHT22;25832;45.490;4.912;2023-02-12T14:40:46;10.40;90.60
40123;DHT22;25832;45.490;4.912;2023-02-12T14:43:35;10.40;90.80
40123;DHT22;25832;45.490;4.912;2023-02-12T14:48:52;10.40;90.50
40123;DHT22;25832;45.490;4.912;2023-02-12T14:51:43;10.50;90.30
40123;DHT22;25832;45.490;4.912;2023-02-12T14:54:20;10.50;90.90
40123;DHT22;25832;45.490;4.912;2023-02-12T14:56:50;10.50;90.80
40123;DHT22;25832;45.490;4.912;2023-02-12T14:59:19;10.50;90.80
40123;DHT22;25832;45.490;4.912;2023-02-12T15:01:47;10.50;90.60
40123;DHT22;25832;45.490;4.912;2023-02-12T15:04:26;10.40;89.80
40123;DHT22;25832;45.490;4.912;2023-02-12T15:06:57;10.50;90.70
40123;DHT22;25832;45.490;4.912;2023-02-12T15:09:32;10.40;90.90
40123;DHT22;25832;45.490;4.912;2023-02-12T15:12:11;10.40;90.20
40123;DHT22;25832;45.490;4.912;2023-02-12T15:14:44;10.40;91.40
40123;DHT22;25832;45.490;4.912;2023-02-12T15:17:14;10.40;91.70
40123;DHT22;25832;45.490;4.912;2023-02-12T15:20:14;10.30;90.00
40123;DHT22;25832;45.490;4.912;2023-02-12T15:22:41;10.30;91.10
40123;DHT22;25832;45.490;4.912;2023-02-12T15:27:54;10.30;91.00
40123;DHT22;25832;45.490;4.912;2023-02-12T15:30:27;10.20;90.90
40123;DHT22;25832;45.490;4.912;2023-02-12T15:32:58;10.20;91.00
40123;DHT22;25832;45.490;4.912;2023-02-12T15:35:33;10.20;91.70
40123;DHT22;25832;45.490;4.912;2023-02-12T15:37:59;10.10;92.20
40123;DHT22;25832;45.490;4.912;2023-02-12T15:40:27;10.20;91.10
40123;DHT22;25832;45.490;4.912;2023-02-12T15:42:59;10.10;91.50
40123;DHT22;25832;45.490;4.912;2023-02-12T15:45:36;10.00;90.30
40123;DHT22;25832;45.490;4.912;2023-02-12T15:53:12;9.80;91.80
40123;DHT22;25832;45.490;4.912;2023-02-12T15:55:41;9.70;91.40
40123;DHT22;25832;45.490;4.912;2023-02-12T16:00:45;9.50;91.30
40123;DHT22;25832;45.490;4.912;2023-02-12T16:03:27;9.40;91.00
40123;DHT22;25832;45.490;4.912;2023-02-12T16:05:59;9.30;91.60
40123;DHT22;25832;45.490;4.912;2023-02-12T16:08:28;9.30;92.50
40123;DHT22;25832;45.490;4.912;2023-02-12T16:10:54;9.20;92.20
40123;DHT22;25832;45.490;4.912;2023-02-12T16:13:32;9.20;92.30
40123;DHT22;25832;45.490;4.912;2023-02-12T16:16:05;9.10;92.40
40123;DHT22;25832;45.490;4.912;2023-02-12T16:18:32;9.10;92.50
40123;DHT22;25832;45.490;4.912;2023-02-12T16:23:36;9.00;92.60
40123;DHT22;25832;45.490;4.912;2023-02-12T16:26:02;8.90;93.10
40123;DHT22;25832;45.490;4.912;2023-02-12T16:28:30;8.80;93.40
40123;DHT22;25832;45.490;4.912;2023-02-12T16:31:10;8.70;93.70
40123;DHT22;25832;45.490;4.912;2023-02-12T16:33:41;8.50;94.00
40123;DHT22;25832;45.490;4.912;2023-02-12T16:43:43;7.90;95.00
40123;DHT22;25832;45.490;4.912;2023-02-12T16:46:11;7.70;95.10
40123;DHT22;25832;45.490;4.912;2023-02-12T16:48:40;7.60;95.40
40123;DHT22;25832;45.490;4.912;2023-02-12T16:51:06;7.50;95.60
40123;DHT22;25832;45.490;4.912;2023-02-12T16:53:44;7.40;95.70
40123;DHT22;25832;45.490;4.912;2023-02-12T16:56:17;7.20;96.00
40123;DHT22;25832;45.490;4.912;2023-02-12T16:58:44;7.10;96.10
40123;DHT22;25832;45.490;4.912;2023-02-12T17:01:17;7.00;96.20
40123;DHT22;25832;45.490;4.912;2023-02-12T17:03:45;6.90;96.20
40123;DHT22;25832;45.490;4.912;2023-02-12T17:06:12;6.60;96.60
40123;DHT22;25832;45.490;4.912;2023-02-12T17:08:39;6.40;97.00
40123;DHT22;25832;45.490;4.912;2023-02-12T17:11:05;6.10;97.70
40123;DHT22;25832;45.490;4.912;2023-02-12T17:13:30;5.90;98.00
40123;DHT22;25832;45.490;4.912;2023-02-12T17:15:58;5.70;98.40
40123;DHT22;25832;45.490;4.912;2023-02-12T17:19:37;5.50;99.00
40123;DHT22;25832;45.490;4.912;2023-02-12T17:22:04;5.30;99.60
40123;DHT22;25832;45.490;4.912;2023-02-12T17:24:31;5.10;99.90
40123;DHT22;25832;45.490;4.912;2023-02-12T17:26:59;5.00;99.90
40123;DHT22;25832;45.490;4.912;2023-02-12T17:29:27;4.80;99.90
40123;DHT22;25832;45.490;4.912;2023-02-12T17:31:53;4.70;99.90
40123;DHT22;25832;45.490;4.912;2023-02-12T17:34:21;4.50;99.90
40123;DHT22;25832;45.490;4.912;2023-02-12T17:36:47;4.40;99.90
40123;DHT22;25832;45.490;4.912;2023-02-12T17:39:15;4.30;99.90
40123;DHT22;25832;45.490;4.912;2023-02-12T17:41:41;4.20;99.90
40123;DHT22;25832;45.490;4.912;2023-02-12T17:44:08;4.00;99.90
40123;DHT22;25832;45.490;4.912;2023-02-12T17:46:34;4.00;99.90
40123;DHT22;25832;45.490;4.912;2023-02-12T17:49:00;3.90;99.90
40123;DHT22;25832;45.490;4.912;2023-02-12T17:51:26;3.80;99.90
40123;DHT22;25832;45.490;4.912;2023-02-12T17:53:52;3.70;99.90
40123;DHT22;25832;45.490;4.912;2023-02-12T17:56:20;3.60;99.90
40123;DHT22;25832;45.490;4.912;2023-02-12T17:58:47;3.50;99.90
40123;DHT22;25832;45.490;4.912;2023-02-12T18:01:16;3.40;99.90
40123;DHT22;25832;45.490;4.912;2023-02-12T18:03:42;3.40;99.90
40123;DHT22;25832;45.490;4.912;2023-02-12T18:06:08;3.40;99.90
40123;DHT22;25832;45.490;4.912;2023-02-12T18:08:40;3.30;99.90
40123;DHT22;25832;45.490;4.912;2023-02-12T18:11:08;3.30;99.90
40123;DHT22;25832;45.490;4.912;2023-02-12T18:13:34;3.10;99.90
40123;DHT22;25832;45.490;4.912;2023-02-12T18:16:01;3.00;99.90
40123;DHT22;25832;45.490;4.912;2023-02-12T18:18:26;2.90;99.90
40123;DHT22;25832;45.490;4.912;2023-02-12T18:20:52;2.80;99.90
40123;DHT22;25832;45.490;4.912;2023-02-12T18:23:18;2.70;99.90
40123;DHT22;25832;45.490;4.912;2023-02-12T18:25:43;2.70;99.90
40123;DHT22;25832;45.490;4.912;2023-02-12T18:28:10;2.70;99.90
40123;DHT22;25832;45.490;4.912;2023-02-12T18:30:37;2.80;99.90